createdAt,value
2019-03-17T00:00:30.737Z,10.60
2019-03-17T00:02:59.268Z,10.60
2019-03-17T00:05:27.759Z,10.60
2019-03-17T00:07:56.198Z,10.60
2019-03-17T00:10:24.637Z,10.60
2019-03-17T00:12:53.085Z,10.60
2019-03-17T00:15:21.505Z,10.60
2019-03-17T00:17:49.965Z,10.60
2019-03-17T00:20:18.392Z,10.60
2019-03-17T00:22:46.838Z,10.80
2019-03-17T00:25:15.274Z,10.70
2019-03-17T00:27:43.719Z,10.70
2019-03-17T00:30:12.409Z,10.80
2019-03-17T00:32:40.861Z,10.70
2019-03-17T00:35:09.289Z,10.60
2019-03-17T00:37:37.773Z,10.70
2019-03-17T00:40:09.096Z,10.70
2019-03-17T00:42:37.517Z,10.70
2019-03-17T00:45:12.026Z,10.80
2019-03-17T00:47:40.518Z,10.80
2019-03-17T00:50:12.060Z,10.70
2019-03-17T00:52:40.537Z,10.70
2019-03-17T00:55:09.215Z,10.70
2019-03-17T00:57:37.664Z,10.80
2019-03-17T01:00:09.485Z,10.70
2019-03-17T01:02:37.941Z,10.80
2019-03-17T01:05:06.509Z,10.80
2019-03-17T01:07:35.009Z,10.80
2019-03-17T01:10:04.245Z,10.80
2019-03-17T01:12:32.674Z,10.90
2019-03-17T01:15:01.117Z,10.80
2019-03-17T01:17:29.546Z,10.70
2019-03-17T01:19:57.985Z,10.70
2019-03-17T01:22:26.426Z,10.70
2019-03-17T01:24:54.870Z,10.70
2019-03-17T01:27:23.317Z,10.70
2019-03-17T01:29:51.785Z,10.60
2019-03-17T01:32:20.230Z,10.60
2019-03-17T01:34:48.668Z,10.70
2019-03-17T01:37:17.135Z,10.70
2019-03-17T01:39:45.577Z,10.70
2019-03-17T01:42:14.034Z,10.70
2019-03-17T01:44:42.472Z,10.70
2019-03-17T01:47:10.934Z,10.70
2019-03-17T01:49:39.363Z,10.70
2019-03-17T01:52:07.838Z,10.70
2019-03-17T01:54:36.265Z,10.70
2019-03-17T01:57:04.720Z,10.60
2019-03-17T01:59:33.159Z,10.70
2019-03-17T02:02:01.611Z,10.70
2019-03-17T02:04:30.037Z,10.70
2019-03-17T02:06:58.501Z,10.70
2019-03-17T02:09:26.945Z,10.70
2019-03-17T02:11:55.369Z,10.70
2019-03-17T02:14:23.814Z,10.70
2019-03-17T02:16:52.245Z,10.70
2019-03-17T02:19:20.778Z,10.70
2019-03-17T02:21:49.208Z,10.70
2019-03-17T02:24:17.675Z,10.70
2019-03-17T02:26:46.108Z,10.70
2019-03-17T02:29:14.559Z,10.70
2019-03-17T02:31:42.992Z,10.80
2019-03-17T02:34:12.102Z,10.80
2019-03-17T02:36:40.745Z,10.80
2019-03-17T02:39:09.199Z,10.80
2019-03-17T02:41:37.627Z,10.80
2019-03-17T02:44:06.088Z,10.80
2019-03-17T02:46:34.598Z,10.70
2019-03-17T02:49:03.078Z,10.80
2019-03-17T02:51:31.683Z,10.70
2019-03-17T02:54:00.148Z,10.70
2019-03-17T02:56:28.906Z,10.70
2019-03-17T02:58:57.344Z,10.80
2019-03-17T03:01:25.782Z,10.80
2019-03-17T03:03:54.230Z,10.80
2019-03-17T03:06:22.654Z,10.70
2019-03-17T03:08:51.101Z,10.80
2019-03-17T03:11:19.535Z,10.80
2019-03-17T03:13:47.975Z,10.80
2019-03-17T03:16:16.397Z,10.80
2019-03-17T03:18:44.852Z,10.80
2019-03-17T03:21:13.279Z,10.80
2019-03-17T03:23:41.734Z,10.80
2019-03-17T03:26:10.275Z,10.80
2019-03-17T03:28:38.706Z,10.80
2019-03-17T03:31:07.131Z,10.80
2019-03-17T03:33:35.601Z,10.80
2019-03-17T03:36:10.940Z,10.80
2019-03-17T03:38:34.520Z,10.80
2019-03-17T03:41:02.971Z,10.80
2019-03-17T03:43:31.460Z,10.80
2019-03-17T03:45:59.886Z,10.80
2019-03-17T03:48:28.485Z,10.90
2019-03-17T03:50:56.941Z,10.80
2019-03-17T03:53:25.433Z,10.80
2019-03-17T03:55:54.206Z,10.80
2019-03-17T03:58:22.823Z,10.80
2019-03-17T04:00:51.281Z,10.80
2019-03-17T04:03:19.709Z,10.80
2019-03-17T04:05:48.167Z,10.70
2019-03-17T04:08:16.623Z,10.60
2019-03-17T04:10:45.047Z,10.60
2019-03-17T04:13:13.522Z,10.60
2019-03-17T04:15:42.214Z,10.60
2019-03-17T04:18:10.646Z,10.70
2019-03-17T04:20:39.350Z,10.70
2019-03-17T04:23:08.064Z,10.80
2019-03-17T04:25:36.647Z,10.80
2019-03-17T04:28:05.407Z,10.80
2019-03-17T04:30:33.835Z,10.80
2019-03-17T04:33:02.305Z,10.80
2019-03-17T04:35:30.737Z,10.80
2019-03-17T04:37:59.266Z,10.70
2019-03-17T04:40:27.696Z,10.70
2019-03-17T04:42:56.502Z,10.80
2019-03-17T04:45:24.948Z,10.80
2019-03-17T04:47:53.625Z,10.90
2019-03-17T04:50:22.076Z,10.80
2019-03-17T04:52:50.514Z,10.80
2019-03-17T04:55:18.957Z,10.80
2019-03-17T04:57:47.408Z,10.80
2019-03-17T05:00:15.857Z,10.80
2019-03-17T05:02:44.534Z,10.80
2019-03-17T05:05:13.134Z,10.80
2019-03-17T05:07:41.825Z,10.90
2019-03-17T05:10:10.789Z,10.80
2019-03-17T05:12:39.244Z,10.80
2019-03-17T05:15:12.418Z,10.80
2019-03-17T05:17:40.858Z,10.80
2019-03-17T05:20:10.669Z,10.80
2019-03-17T05:22:39.218Z,10.90
2019-03-17T05:25:08.189Z,10.80
2019-03-17T05:27:36.637Z,10.80
2019-03-17T05:30:10.066Z,10.70
2019-03-17T05:32:38.540Z,10.70
2019-03-17T05:35:07.205Z,10.70
2019-03-17T05:37:35.897Z,10.70
2019-03-17T05:40:06.580Z,10.70
2019-03-17T05:42:35.265Z,10.60
2019-03-17T05:45:04.076Z,10.60
2019-03-17T05:47:32.528Z,10.50
2019-03-17T05:50:00.969Z,10.50
2019-03-17T05:52:29.739Z,10.60
2019-03-17T05:54:58.440Z,10.40
2019-03-17T05:57:27.133Z,10.30
2019-03-17T05:59:55.831Z,10.40
2019-03-17T06:02:24.278Z,10.30
2019-03-17T06:04:52.728Z,10.20
2019-03-17T06:07:21.162Z,10.30
2019-03-17T06:09:49.608Z,10.20
2019-03-17T06:12:18.050Z,10.20
2019-03-17T06:14:46.489Z,10.10
2019-03-17T06:17:14.918Z,10.20
2019-03-17T06:19:43.365Z,10.20
2019-03-17T06:22:11.812Z,10.20
2019-03-17T06:24:40.241Z,10.20
2019-03-17T06:27:08.684Z,10.10
2019-03-17T06:29:37.117Z,10.10
2019-03-17T06:32:05.569Z,10.20
2019-03-17T06:34:34.242Z,10.10
2019-03-17T06:37:02.721Z,10.10
2019-03-17T06:39:31.233Z,10.10
2019-03-17T06:41:59.737Z,10.20
2019-03-17T06:44:28.198Z,10.00
2019-03-17T06:46:56.882Z,10.10
2019-03-17T06:49:25.325Z,10.10
2019-03-17T06:51:53.757Z,10.00
2019-03-17T06:54:22.215Z,10.10
2019-03-17T06:56:50.641Z,9.90
2019-03-17T06:59:19.089Z,10.00
2019-03-17T07:01:47.538Z,10.70
2019-03-17T07:04:16.250Z,10.50
2019-03-17T07:06:44.676Z,9.70
2019-03-17T07:09:13.119Z,11.30
2019-03-17T07:11:41.630Z,11.60
2019-03-17T07:14:10.077Z,10.20
2019-03-17T07:16:38.526Z,10.40
2019-03-17T07:19:07.205Z,10.20
2019-03-17T07:21:35.662Z,10.40
2019-03-17T07:24:04.255Z,10.30
2019-03-17T07:26:32.990Z,10.40
2019-03-17T07:29:01.662Z,10.10
2019-03-17T07:31:30.106Z,9.80
2019-03-17T07:33:58.524Z,9.70
2019-03-17T07:36:26.941Z,9.20
2019-03-17T07:38:55.646Z,9.20
2019-03-17T07:41:24.319Z,9.30
2019-03-17T07:43:52.762Z,9.60
2019-03-17T07:46:21.176Z,9.20
2019-03-17T07:48:49.910Z,9.50
2019-03-17T07:51:18.334Z,9.80
2019-03-17T07:53:47.044Z,9.50
2019-03-17T07:56:15.713Z,9.40
2019-03-17T07:58:44.138Z,9.30
2019-03-17T08:01:12.573Z,9.40
2019-03-17T08:03:41.017Z,10.20
2019-03-17T08:06:09.453Z,9.90
2019-03-17T08:08:37.992Z,9.50
2019-03-17T08:11:06.609Z,9.10
2019-03-17T08:13:35.304Z,9.10
2019-03-17T08:16:03.733Z,9.10
2019-03-17T08:18:32.176Z,9.40
2019-03-17T08:21:00.607Z,8.90
2019-03-17T08:23:29.088Z,8.90
2019-03-17T08:25:57.570Z,8.80
2019-03-17T08:28:26.001Z,8.80
2019-03-17T08:30:54.452Z,9.00
2019-03-17T08:33:22.864Z,9.20
2019-03-17T08:35:51.303Z,9.00
2019-03-17T08:38:22.157Z,9.20
2019-03-17T08:40:49.893Z,9.00
2019-03-17T08:43:18.341Z,8.80
2019-03-17T08:45:46.764Z,8.90
2019-03-17T08:48:15.210Z,9.10
2019-03-17T08:50:43.631Z,9.10
2019-03-17T08:53:12.078Z,8.80
2019-03-17T08:55:40.497Z,9.00
2019-03-17T08:58:08.938Z,8.90
2019-03-17T09:00:37.357Z,8.90
2019-03-17T09:03:05.810Z,8.80
2019-03-17T09:05:34.254Z,9.30
2019-03-17T09:08:02.688Z,9.30
2019-03-17T09:10:31.113Z,9.30
2019-03-17T09:12:59.565Z,9.50
2019-03-17T09:15:28.009Z,9.30
2019-03-17T09:17:56.486Z,9.30
2019-03-17T09:20:24.922Z,9.20
2019-03-17T09:22:53.346Z,9.10
2019-03-17T09:25:21.789Z,9.10
2019-03-17T09:27:50.209Z,9.50
2019-03-17T09:30:19.274Z,9.70
2019-03-17T09:32:47.699Z,10.00
2019-03-17T09:35:16.130Z,10.00
2019-03-17T09:37:44.564Z,9.90
2019-03-17T09:40:17.012Z,10.00
2019-03-17T09:42:45.454Z,9.60
2019-03-17T09:45:15.581Z,10.30
2019-03-17T09:47:44.029Z,10.70
2019-03-17T09:50:16.601Z,10.40
2019-03-17T09:52:45.024Z,10.00
2019-03-17T09:55:13.726Z,10.00
2019-03-17T09:57:42.177Z,10.50
2019-03-17T10:00:15.323Z,10.20
2019-03-17T10:02:44.085Z,10.30
2019-03-17T10:05:13.049Z,10.10
2019-03-17T10:07:41.497Z,10.70
2019-03-17T10:10:13.032Z,10.90
2019-03-17T10:12:41.484Z,10.60
2019-03-17T10:15:19.451Z,10.20
2019-03-17T10:17:47.893Z,9.90
2019-03-17T10:20:20.429Z,9.80
2019-03-17T10:22:48.930Z,10.10
2019-03-17T10:25:17.477Z,10.40
2019-03-17T10:27:45.925Z,9.60
2019-03-17T10:30:17.753Z,9.60
2019-03-17T10:32:45.642Z,9.70
2019-03-17T10:35:14.105Z,9.70
2019-03-17T10:37:42.676Z,9.70
2019-03-17T10:40:16.007Z,10.00
2019-03-17T10:42:44.518Z,10.20
2019-03-17T10:45:18.637Z,10.10
2019-03-17T10:47:47.134Z,10.10
2019-03-17T10:50:18.977Z,10.00
2019-03-17T10:52:47.416Z,10.00
2019-03-17T10:55:15.918Z,10.40
2019-03-17T10:57:44.622Z,10.40
2019-03-17T11:00:18.466Z,10.70
2019-03-17T11:02:46.990Z,10.00
2019-03-17T11:05:15.671Z,10.20
2019-03-17T11:07:44.356Z,10.20
2019-03-17T11:10:14.100Z,10.20
2019-03-17T11:12:42.647Z,10.30
2019-03-17T11:15:17.980Z,10.10
2019-03-17T11:17:46.402Z,10.60
2019-03-17T11:20:15.140Z,10.60
2019-03-17T11:22:43.633Z,10.80
2019-03-17T11:25:18.371Z,10.90
2019-03-17T11:27:46.827Z,10.90
2019-03-17T11:30:19.850Z,11.20
2019-03-17T11:32:48.341Z,11.20
2019-03-17T11:35:16.781Z,11.10
2019-03-17T11:37:45.498Z,11.20
2019-03-17T11:40:20.666Z,10.90
2019-03-17T11:42:50.450Z,10.50
2019-03-17T11:45:19.371Z,10.80
2019-03-17T11:47:48.067Z,10.60
2019-03-17T11:50:24.123Z,10.70
2019-03-17T11:52:52.629Z,10.80
2019-03-17T11:55:21.286Z,10.50
2019-03-17T11:57:49.870Z,10.30
2019-03-17T12:00:19.334Z,10.60
2019-03-17T12:02:47.780Z,10.70
2019-03-17T12:05:16.382Z,10.70
2019-03-17T12:07:44.837Z,10.00
2019-03-17T12:10:18.008Z,9.90
2019-03-17T12:12:46.454Z,10.10
2019-03-17T12:15:20.725Z,10.00
2019-03-17T12:17:49.411Z,10.00
2019-03-17T12:20:18.122Z,10.20
2019-03-17T12:22:46.554Z,10.50
2019-03-17T12:25:18.652Z,10.60
2019-03-17T12:27:47.102Z,10.60
2019-03-17T12:30:25.286Z,10.40
2019-03-17T12:32:54.350Z,10.60
2019-03-17T12:35:22.988Z,11.00
2019-03-17T12:37:51.435Z,10.70
2019-03-17T12:40:19.945Z,10.60
2019-03-17T12:42:48.401Z,10.60
2019-03-17T12:45:17.171Z,10.60
2019-03-17T12:47:46.030Z,11.00
2019-03-17T12:50:16.662Z,11.20
2019-03-17T12:52:45.081Z,11.40
2019-03-17T12:55:13.601Z,11.50
2019-03-17T12:57:42.306Z,11.60
2019-03-17T13:00:16.190Z,11.90
2019-03-17T13:02:44.638Z,12.00
2019-03-17T13:05:13.653Z,12.30
2019-03-17T13:07:42.107Z,12.20
2019-03-17T13:10:16.370Z,12.20
2019-03-17T13:12:45.277Z,12.50
2019-03-17T13:15:13.808Z,12.90
2019-03-17T13:17:42.486Z,13.00
2019-03-17T13:20:18.013Z,12.80
2019-03-17T13:22:46.755Z,12.80
2019-03-17T13:25:15.191Z,13.20
2019-03-17T13:27:43.643Z,12.80
2019-03-17T13:30:18.351Z,12.70
2019-03-17T13:32:46.864Z,12.90
2019-03-17T13:35:15.313Z,13.00
2019-03-17T13:37:43.759Z,12.80
2019-03-17T13:40:27.635Z,13.40
2019-03-17T13:42:45.130Z,13.20
2019-03-17T13:45:14.016Z,12.80
2019-03-17T13:47:42.476Z,12.40
2019-03-17T13:50:16.718Z,13.80
2019-03-17T13:52:45.151Z,13.20
2019-03-17T13:55:13.609Z,13.50
2019-03-17T13:57:44.883Z,13.00
2019-03-17T14:00:14.888Z,12.80
2019-03-17T14:02:43.339Z,13.50
2019-03-17T14:05:11.940Z,12.60
2019-03-17T14:07:40.401Z,13.10
2019-03-17T14:10:13.977Z,13.50
2019-03-17T14:12:42.431Z,13.70
2019-03-17T14:15:12.702Z,14.10
2019-03-17T14:17:41.226Z,13.20
2019-03-17T14:20:12.724Z,13.60
2019-03-17T14:22:41.427Z,12.80
2019-03-17T14:25:12.946Z,12.70
2019-03-17T14:27:41.625Z,12.80
2019-03-17T14:30:13.363Z,13.30
2019-03-17T14:32:41.883Z,13.90
2019-03-17T14:35:10.636Z,13.40
2019-03-17T14:37:39.066Z,12.60
2019-03-17T14:40:12.992Z,11.80
2019-03-17T14:42:41.419Z,12.00
2019-03-17T14:45:14.945Z,13.00
2019-03-17T14:47:43.374Z,13.00
2019-03-17T14:50:17.515Z,12.40
2019-03-17T14:52:46.010Z,12.40
2019-03-17T14:55:14.458Z,12.80
2019-03-17T14:57:43.143Z,13.00
2019-03-17T15:00:14.194Z,12.40
2019-03-17T15:02:42.632Z,12.90
2019-03-17T15:05:11.232Z,13.30
2019-03-17T15:07:39.686Z,12.90
2019-03-17T15:10:11.046Z,12.80
2019-03-17T15:12:39.847Z,12.30
2019-03-17T15:15:11.453Z,13.00
2019-03-17T15:17:39.910Z,12.10
2019-03-17T15:20:11.562Z,12.40
2019-03-17T15:22:40.035Z,12.20
2019-03-17T15:25:10.327Z,12.10
2019-03-17T15:27:41.834Z,12.10
2019-03-17T15:30:22.112Z,12.50
2019-03-17T15:32:50.567Z,12.40
2019-03-17T15:35:18.999Z,12.40
2019-03-17T15:37:47.509Z,12.80
2019-03-17T15:40:17.388Z,12.80
2019-03-17T15:42:45.900Z,12.30
2019-03-17T15:45:16.150Z,12.60
2019-03-17T15:47:44.728Z,12.60
2019-03-17T15:50:15.750Z,12.60
2019-03-17T15:52:44.178Z,13.40
2019-03-17T15:55:14.372Z,12.50
2019-03-17T15:57:42.953Z,12.70
2019-03-17T16:00:24.096Z,12.50
2019-03-17T16:02:44.736Z,12.10
2019-03-17T16:05:13.565Z,11.20
2019-03-17T16:07:42.768Z,11.50
2019-03-17T16:10:19.232Z,11.30
2019-03-17T16:12:47.994Z,10.90
2019-03-17T16:15:16.527Z,11.00
2019-03-17T16:17:44.977Z,12.40
2019-03-17T16:20:19.225Z,12.40
2019-03-17T16:22:48.115Z,11.60
2019-03-17T16:25:21.846Z,12.00
2019-03-17T16:27:50.277Z,11.60
2019-03-17T16:30:21.224Z,11.90
2019-03-17T16:32:49.966Z,12.20
2019-03-17T16:35:18.544Z,11.60
2019-03-17T16:37:47.011Z,11.60
2019-03-17T16:40:17.565Z,11.80
2019-03-17T16:42:46.253Z,12.60
2019-03-17T16:45:16.394Z,12.10
2019-03-17T16:47:45.229Z,11.10
2019-03-17T16:50:16.386Z,12.10
2019-03-17T16:52:44.825Z,12.40
2019-03-17T16:55:13.729Z,11.60
2019-03-17T16:57:42.733Z,11.40
2019-03-17T17:00:14.244Z,12.20
2019-03-17T17:02:42.737Z,12.40
2019-03-17T17:05:13.161Z,12.40
2019-03-17T17:07:41.608Z,12.50
2019-03-17T17:10:12.717Z,12.60
2019-03-17T17:12:41.163Z,12.40
2019-03-17T17:15:12.421Z,11.60
2019-03-17T17:17:40.849Z,12.00
2019-03-17T17:20:12.691Z,12.20
2019-03-17T17:22:41.954Z,13.50
2019-03-17T17:25:11.420Z,13.60
2019-03-17T17:27:39.866Z,12.00
2019-03-17T17:30:11.401Z,10.50
2019-03-17T17:32:40.126Z,10.00
2019-03-17T17:35:08.546Z,10.90
2019-03-17T17:37:36.962Z,10.50
2019-03-17T17:40:08.424Z,10.20
2019-03-17T17:42:36.849Z,10.10
2019-03-17T17:45:11.069Z,10.50
2019-03-17T17:47:39.755Z,10.00
2019-03-17T17:50:18.989Z,10.00
2019-03-17T17:52:47.675Z,10.00
2019-03-17T17:55:16.443Z,10.00
2019-03-17T17:57:44.867Z,9.90
2019-03-17T18:00:20.705Z,9.90
2019-03-17T18:02:49.580Z,10.00
2019-03-17T18:05:18.006Z,9.90
2019-03-17T18:07:46.478Z,9.70
2019-03-17T18:10:19.265Z,9.80
2019-03-17T18:12:47.721Z,9.70
2019-03-17T18:15:26.501Z,9.70
2019-03-17T18:17:54.950Z,9.80
2019-03-17T18:20:23.384Z,9.60
2019-03-17T18:22:52.277Z,9.70
2019-03-17T18:25:21.915Z,9.80
2019-03-17T18:27:50.522Z,9.80
2019-03-17T18:30:19.977Z,9.70
2019-03-17T18:32:48.429Z,9.50
2019-03-17T18:35:17.116Z,9.70
2019-03-17T18:37:45.579Z,9.90
2019-03-17T18:40:18.108Z,9.80
2019-03-17T18:42:46.555Z,9.50
2019-03-17T18:45:20.006Z,9.30
2019-03-17T18:47:48.665Z,9.50
2019-03-17T18:50:20.633Z,9.40
2019-03-17T18:52:47.644Z,9.40
2019-03-17T18:55:16.620Z,9.20
2019-03-17T18:57:45.041Z,9.20
2019-03-17T19:00:16.000Z,9.30
2019-03-17T19:02:44.829Z,9.30
2019-03-17T19:05:19.619Z,9.60
2019-03-17T19:07:46.761Z,9.40
2019-03-17T19:10:16.346Z,9.30
2019-03-17T19:12:46.034Z,9.00
2019-03-17T19:15:22.245Z,9.10
2019-03-17T19:17:50.764Z,9.30
2019-03-17T19:20:20.141Z,9.30
2019-03-17T19:22:48.557Z,9.20
2019-03-17T19:25:21.663Z,8.90
2019-03-17T19:27:50.082Z,8.80
2019-03-17T19:30:20.895Z,8.90
2019-03-17T19:32:49.410Z,8.70
2019-03-17T19:35:17.902Z,8.50
2019-03-17T19:37:46.329Z,9.00
2019-03-17T19:40:17.189Z,8.80
2019-03-17T19:42:57.508Z,8.80
2019-03-17T19:45:16.038Z,8.80
2019-03-17T19:47:44.753Z,8.70
2019-03-17T19:50:17.842Z,8.60
2019-03-17T19:52:46.265Z,8.50
2019-03-17T19:55:14.710Z,8.60
2019-03-17T19:57:43.211Z,8.30
2019-03-17T20:00:17.661Z,8.50
2019-03-17T20:02:47.714Z,8.40
2019-03-17T20:05:16.495Z,8.40
2019-03-17T20:07:45.028Z,8.60
2019-03-17T20:10:34.718Z,8.40
2019-03-17T20:13:11.604Z,8.20
2019-03-17T20:15:33.531Z,8.30
2019-03-17T20:18:01.966Z,8.20
2019-03-17T20:20:30.418Z,8.70
2019-03-17T20:22:58.861Z,8.50
2019-03-17T20:25:27.361Z,8.20
2019-03-17T20:27:56.057Z,8.20
2019-03-17T20:30:24.466Z,8.00
2019-03-17T20:32:52.908Z,8.10
2019-03-17T20:35:21.347Z,8.20
2019-03-17T20:37:49.795Z,8.10
2019-03-17T20:40:19.300Z,8.30
2019-03-17T20:42:47.960Z,8.20
2019-03-17T20:45:20.034Z,8.50
2019-03-17T20:47:46.940Z,8.40
2019-03-17T20:50:18.853Z,8.10
2019-03-17T20:52:47.550Z,8.20
2019-03-17T20:55:15.997Z,8.20
2019-03-17T20:57:44.430Z,8.00
2019-03-17T21:00:17.674Z,8.00
2019-03-17T21:02:46.177Z,8.10
2019-03-17T21:05:14.627Z,8.10
2019-03-17T21:07:43.322Z,7.90
2019-03-17T21:10:13.861Z,7.90
2019-03-17T21:12:42.533Z,7.60
2019-03-17T21:15:18.721Z,7.60
2019-03-17T21:17:47.173Z,7.90
2019-03-17T21:20:17.697Z,8.10
2019-03-17T21:22:46.129Z,8.20
2019-03-17T21:25:14.569Z,7.80
2019-03-17T21:27:42.991Z,7.90
2019-03-17T21:30:16.874Z,7.90
2019-03-17T21:32:45.301Z,8.00
2019-03-17T21:35:13.997Z,8.00
2019-03-17T21:37:42.669Z,8.00
2019-03-17T21:40:12.155Z,7.90
2019-03-17T21:42:40.602Z,7.80
2019-03-17T21:45:13.429Z,7.60
2019-03-17T21:47:41.926Z,7.90
2019-03-17T21:50:13.422Z,7.70
2019-03-17T21:52:41.878Z,7.60
2019-03-17T21:55:10.954Z,7.70
2019-03-17T21:57:39.379Z,7.70
2019-03-17T22:00:12.993Z,7.90
2019-03-17T22:02:41.667Z,7.60
2019-03-17T22:05:11.937Z,7.70
2019-03-17T22:07:49.338Z,7.80
2019-03-17T22:10:13.103Z,7.90
2019-03-17T22:12:41.581Z,7.50
2019-03-17T22:15:14.131Z,7.60
2019-03-17T22:17:42.589Z,7.40
2019-03-17T22:20:13.000Z,7.40
2019-03-17T22:22:41.497Z,7.50
2019-03-17T22:25:13.444Z,7.70
2019-03-17T22:27:41.884Z,7.80
2019-03-17T22:30:17.287Z,7.60
2019-03-17T22:32:45.717Z,7.60
2019-03-17T22:35:14.169Z,7.60
2019-03-17T22:37:42.590Z,7.60
2019-03-17T22:40:12.476Z,7.30
2019-03-17T22:42:41.157Z,7.80
2019-03-17T22:45:12.668Z,7.30
2019-03-17T22:47:41.132Z,7.50
2019-03-17T22:50:14.104Z,7.40
2019-03-17T22:52:42.621Z,7.50
2019-03-17T22:55:11.444Z,7.20
2019-03-17T22:57:40.237Z,7.40
2019-03-17T23:00:14.266Z,7.40
2019-03-17T23:02:42.967Z,7.60
2019-03-17T23:05:11.574Z,7.40
2019-03-17T23:07:40.073Z,7.40
2019-03-17T23:10:10.862Z,7.50
2019-03-17T23:12:39.305Z,7.30
2019-03-17T23:15:09.851Z,7.40
2019-03-17T23:17:38.541Z,7.80
2019-03-17T23:20:16.704Z,7.60
2019-03-17T23:22:45.149Z,7.40
2019-03-17T23:25:13.901Z,7.40
2019-03-17T23:27:42.349Z,7.40
2019-03-17T23:30:15.948Z,7.20
2019-03-17T23:32:44.433Z,7.50
2019-03-17T23:35:12.882Z,7.60
2019-03-17T23:37:41.311Z,7.50
2019-03-17T23:40:11.384Z,7.40
2019-03-17T23:42:39.913Z,7.80
2019-03-17T23:45:10.240Z,7.80
2019-03-17T23:47:38.685Z,7.30
2019-03-17T23:50:09.349Z,7.20
2019-03-17T23:52:38.059Z,7.20
2019-03-17T23:55:07.874Z,7.00
2019-03-17T23:57:36.317Z,7.00
